Weather reports worldwide

Advertisment
Mannheim City Airport, Germany (10730): temperature & dewpoint: 19.03.2019 07:00:00 - 25.03.2019 07:00:00 (CET)Mannheim City Airport, Germany (10730): wind speed: 19.03.2019 07:00:00 - 25.03.2019 07:00:00 (CET)Mannheim City Airport, Germany (10730): wind direction: 19.03.2019 07:00:00 - 25.03.2019 07:00:00 (CET)Mannheim City Airport, Germany (10730): visibility: 19.03.2019 07:00:00 - 25.03.2019 07:00:00 (CET)
Date & Time tt [°C] td [°C] ff [km/h] ff [kn] dd vv [km]
25.03.2019 07:00:00 5,0 0,0 5 3 - 10
25.03.2019 06:00:00 4,0 -1,0 8 4 SW 10
25.03.2019 05:00:00 - - - - - -
25.03.2019 04:00:00 - - - - - -
25.03.2019 03:00:00 - - - - - -
25.03.2019 02:00:00 - - - - - -
25.03.2019 01:00:00 - - - - - -
25.03.2019 00:00:00 - - - - - -
24.03.2019 23:00:00 - - - - - -
24.03.2019 22:00:00 - - - - - -
24.03.2019 21:00:00 10,0 4,0 9 5 NW 10
24.03.2019 20:00:00 11,0 5,0 9 5 NW 10
24.03.2019 19:00:00 12,0 5,0 13 7 NNW 10
24.03.2019 18:00:00 13,0 4,0 18 10 NNW 10
24.03.2019 17:00:00 14,0 5,0 16 9 NNW 10
24.03.2019 16:00:00 15,0 5,0 16 9 NNW 10
24.03.2019 15:00:00 14,0 6,0 21 11 NNW 10
24.03.2019 14:00:00 14,0 6,0 18 10 WNW 9
24.03.2019 13:00:00 13,0 6,0 11 6 NW 9
24.03.2019 12:00:00 12,0 5,0 11 6 NW 9
24.03.2019 11:00:00 11,0 6,0 8 4 NW 9
24.03.2019 10:00:00 10,0 5,0 9 5 N 8
24.03.2019 09:00:00 7,0 4,0 8 4 NNW 6
24.03.2019 08:00:00 6,0 4,0 5 3 - 5
24.03.2019 07:00:00 - - - - - -
24.03.2019 06:00:00 - - - - - -
24.03.2019 05:00:00 - - - - - -
24.03.2019 04:00:00 - - - - - -
24.03.2019 03:00:00 - - - - - -
24.03.2019 02:00:00 - - - - - -
24.03.2019 01:00:00 7,0 4,0 13 7 NNW 10
24.03.2019 00:00:00 - - - - - -
23.03.2019 23:00:00 - - - - - -
23.03.2019 22:00:00 - - - - - -
23.03.2019 21:00:00 - - - - - -
23.03.2019 20:00:00 11,0 4,0 18 10 NNW 7
23.03.2019 19:00:00 13,0 5,0 15 8 NNW 10
23.03.2019 18:00:00 16,0 6,0 18 10 NNW 9
23.03.2019 17:00:00 18,0 4,0 13 7 NNW 10
23.03.2019 16:00:00 18,0 3,0 9 5 N 10
23.03.2019 15:00:00 18,0 4,0 9 5 NNW 10
23.03.2019 14:00:00 18,0 5,0 8 4 - 10
23.03.2019 13:00:00 16,0 4,0 4 2 - 10
23.03.2019 12:00:00 15,0 4,0 4 2 - 10
23.03.2019 11:00:00 13,0 4,0 4 2 - 10
23.03.2019 10:00:00 11,0 3,0 5 3 - 10
23.03.2019 09:00:00 9,0 3,0 5 3 - 10
23.03.2019 08:00:00 7,0 3,0 9 5 SSE 10
23.03.2019 07:00:00 - - - - - -
23.03.2019 06:00:00 - - - - - -
23.03.2019 05:00:00 - - - - - -
23.03.2019 04:00:00 - - - - - -
23.03.2019 03:00:00 - - - - - -
23.03.2019 02:00:00 - - - - - -
23.03.2019 01:00:00 - - - - - -
23.03.2019 00:00:00 - - - - - -
22.03.2019 23:00:00 - - - - - -
22.03.2019 22:00:00 - - - - - -
22.03.2019 21:00:00 10,0 3,0 0 0 N 10
22.03.2019 20:00:00 12,0 3,0 0 0 N 10
22.03.2019 19:00:00 16,0 1,0 4 2 - 10
22.03.2019 18:00:00 19,0 1,0 8 4 SW 10
22.03.2019 17:00:00 20,0 0,0 11 6 SSE 10
22.03.2019 16:00:00 20,0 0,0 8 4 - 10
22.03.2019 15:00:00 20,0 -1,0 5 3 - 10
22.03.2019 14:00:00 19,0 -2,0 4 2 - 10
22.03.2019 13:00:00 18,0 -2,0 2 1 - 10
22.03.2019 12:00:00 16,0 -1,0 2 1 - 10
22.03.2019 11:00:00 14,0 0,0 2 1 - 10
22.03.2019 10:00:00 11,0 1,0 4 2 - 10
22.03.2019 09:00:00 8,0 3,0 0 0 N 10
22.03.2019 08:00:00 6,0 2,0 2 1 E 10
22.03.2019 07:00:00 2,0 0,0 4 2 SSE 10
22.03.2019 06:00:00 2,0 0,0 0 0 N 10
22.03.2019 05:00:00 - - - - - -
22.03.2019 04:00:00 - - - - - -
22.03.2019 03:00:00 - - - - - -
22.03.2019 02:00:00 - - - - - -
22.03.2019 01:00:00 - - - - - -
22.03.2019 00:00:00 - - - - - -
21.03.2019 23:00:00 - - - - - -
21.03.2019 22:00:00 9,0 -1,0 5 3 NE 10
21.03.2019 21:00:00 10,0 -1,0 8 4 NE 10
21.03.2019 20:00:00 13,0 -2,0 9 5 ENE 10
21.03.2019 19:00:00 14,0 -1,0 11 6 NE 10
21.03.2019 18:00:00 16,0 -2,0 15 8 NNE 10
21.03.2019 17:00:00 17,0 -4,0 15 8 NE 10
21.03.2019 16:00:00 18,0 -3,0 5 3 - 10
21.03.2019 15:00:00 17,0 -3,0 5 3 - 10
21.03.2019 14:00:00 16,0 -2,0 5 3 - 10
21.03.2019 13:00:00 15,0 -2,0 8 4 - 10
21.03.2019 12:00:00 14,0 -2,0 2 1 - 10
21.03.2019 11:00:00 12,0 -2,0 2 1 - 10
21.03.2019 10:00:00 9,0 1,0 0 0 N 10
21.03.2019 09:00:00 6,0 0,0 4 2 - 10
21.03.2019 08:00:00 3,0 0,0 8 4 NNW 10
21.03.2019 07:00:00 2,0 -1,0 5 3 N 10
21.03.2019 06:00:00 1,0 -2,0 4 2 NNW 10
21.03.2019 05:00:00 - - - - - -
21.03.2019 04:00:00 - - - - - -
21.03.2019 03:00:00 - - - - - -
21.03.2019 02:00:00 - - - - - -
21.03.2019 01:00:00 - - - - - -
21.03.2019 00:00:00 - - - - - -
20.03.2019 23:00:00 5,0 0,0 0 0 N 10
20.03.2019 22:00:00 5,0 0,0 5 3 E 10
20.03.2019 21:00:00 7,0 -1,0 4 2 E 10
20.03.2019 20:00:00 8,0 -2,0 2 1 NW 10
20.03.2019 19:00:00 11,0 -2,0 5 3 N 10
20.03.2019 18:00:00 13,0 -2,0 11 6 NW 10
20.03.2019 17:00:00 13,0 -1,0 11 6 NW 10
20.03.2019 16:00:00 13,0 -2,0 4 2 - 10
20.03.2019 15:00:00 13,0 -2,0 5 3 - 10
20.03.2019 14:00:00 13,0 -1,0 5 3 - 10
20.03.2019 13:00:00 11,0 -1,0 4 2 - 10
20.03.2019 12:00:00 11,0 -1,0 4 2 - 10
20.03.2019 11:00:00 10,0 1,0 4 2 - 10
20.03.2019 10:00:00 7,0 0,0 0 0 N 10
20.03.2019 09:00:00 5,0 0,0 0 0 N 10
20.03.2019 08:00:00 2,0 0,0 2 1 - 10
20.03.2019 07:00:00 -2,0 -3,0 2 1 - 10
20.03.2019 06:00:00 - - - - - -
20.03.2019 05:00:00 - - - - - -
20.03.2019 04:00:00 - - - - - -
20.03.2019 03:00:00 - - - - - -
20.03.2019 02:00:00 - - - - - -
20.03.2019 01:00:00 - - - - - -
20.03.2019 00:00:00 - - - - - -
19.03.2019 23:00:00 - - - - - -
19.03.2019 22:00:00 - - - - - -
19.03.2019 21:00:00 5,0 -2,0 4 2 E 10
19.03.2019 20:00:00 7,0 -2,0 5 3 NE 10
19.03.2019 19:00:00 9,0 -4,0 5 3 NNE 10
19.03.2019 18:00:00 10,0 -4,0 11 6 N 10
19.03.2019 17:00:00 10,0 -4,0 11 6 N 10
19.03.2019 16:00:00 10,0 -3,0 11 6 NNW 10
19.03.2019 15:00:00 10,0 -3,0 13 7 NW 10
19.03.2019 14:00:00 10,0 -2,0 9 5 NW 10
19.03.2019 13:00:00 9,0 -3,0 9 5 NNW 10
19.03.2019 12:00:00 9,0 -1,0 11 6 N 10
19.03.2019 11:00:00 8,0 1,0 4 2 - 10
19.03.2019 10:00:00 6,0 1,0 8 4 NNE 10
19.03.2019 09:00:00 4,0 1,0 13 7 N 10
19.03.2019 08:00:00 2,0 1,0 8 4 N 10
19.03.2019 07:00:00 0,0 0,0 0 0 N 10

tt = temperature
td = dewpoint
ff = wind speed
dd = wind direction
vv = visibility

Next stations